createdAt,value
2023-04-16T00:00:51.094Z,1017.5
2023-04-16T00:02:36.135Z,1017.47
2023-04-16T00:04:21.431Z,1017.41
2023-04-16T00:06:06.076Z,1017.44
2023-04-16T00:07:51.058Z,1017.51
2023-04-16T00:09:36.315Z,1017.52
2023-04-16T00:11:21.111Z,1017.51
2023-04-16T00:13:06.340Z,1017.55
2023-04-16T00:14:51.361Z,1017.58
2023-04-16T00:16:36.122Z,1017.5
2023-04-16T00:18:21.058Z,1017.61
2023-04-16T00:20:06.075Z,1017.53
2023-04-16T00:21:51.130Z,1017.51
2023-04-16T00:23:36.047Z,1017.53
2023-04-16T00:25:21.078Z,1017.52
2023-04-16T00:27:06.108Z,1017.52
2023-04-16T00:28:51.057Z,1017.56
2023-04-16T00:30:36.127Z,1017.54
2023-04-16T00:32:21.153Z,1017.53
2023-04-16T00:34:06.082Z,1017.55
2023-04-16T00:35:51.097Z,1017.52
2023-04-16T00:37:36.113Z,1017.53
2023-04-16T00:39:21.091Z,1017.59
2023-04-16T00:41:06.086Z,1017.5
2023-04-16T00:42:51.133Z,1017.52
2023-04-16T00:44:36.125Z,1017.6
2023-04-16T00:46:21.115Z,1017.51
2023-04-16T00:48:06.126Z,1017.57
2023-04-16T00:49:51.128Z,1017.59
2023-04-16T00:51:36.096Z,1017.56
2023-04-16T00:53:21.170Z,1017.59
2023-04-16T00:55:06.125Z,1017.63
2023-04-16T00:56:51.097Z,1017.62
2023-04-16T00:58:36.168Z,1017.66
2023-04-16T01:00:21.430Z,1017.65
2023-04-16T01:02:06.192Z,1017.57
2023-04-16T01:03:51.193Z,1017.63
2023-04-16T01:05:36.411Z,1017.59
2023-04-16T01:07:21.119Z,1017.61
2023-04-16T01:09:06.186Z,1017.68
2023-04-16T01:10:51.119Z,1017.7
2023-04-16T01:12:36.129Z,1017.7
2023-04-16T01:14:21.153Z,1017.72
2023-04-16T01:16:06.197Z,1017.67
2023-04-16T01:17:51.244Z,1017.77
2023-04-16T01:19:36.338Z,1017.69
2023-04-16T01:21:21.129Z,1017.76
2023-04-16T01:23:06.157Z,1017.65
2023-04-16T01:24:51.463Z,1017.78
2023-04-16T01:26:36.133Z,1017.74
2023-04-16T01:28:21.162Z,1017.81
2023-04-16T01:30:06.287Z,1017.71
2023-04-16T01:31:51.237Z,1017.84
2023-04-16T01:33:36.492Z,1017.84
2023-04-16T01:35:21.190Z,1017.75
2023-04-16T01:37:06.174Z,1017.75
2023-04-16T01:38:51.171Z,1017.82
2023-04-16T01:40:36.249Z,1017.77
2023-04-16T01:42:21.169Z,1017.79
2023-04-16T01:44:06.209Z,1017.83
2023-04-16T01:45:51.202Z,1017.73
2023-04-16T01:47:36.871Z,1017.73
2023-04-16T01:49:21.539Z,1017.73
2023-04-16T01:51:06.272Z,1017.83
2023-04-16T01:52:51.191Z,1017.82
2023-04-16T01:54:36.221Z,1017.79
2023-04-16T01:56:21.235Z,1017.8
2023-04-16T01:58:06.490Z,1017.7
2023-04-16T01:59:51.228Z,1017.66
2023-04-16T02:01:36.242Z,1017.75
2023-04-16T02:03:21.282Z,1017.69
2023-04-16T02:05:06.280Z,1017.79
2023-04-16T02:06:51.303Z,1017.77
2023-04-16T02:08:36.235Z,1017.73
2023-04-16T02:10:21.218Z,1017.74
2023-04-16T02:12:06.233Z,1017.72
2023-04-16T02:13:51.226Z,1017.7
2023-04-16T02:15:36.226Z,1017.68
2023-04-16T02:17:21.443Z,1017.67
2023-04-16T02:19:06.254Z,1017.63
2023-04-16T02:20:51.268Z,1017.67
2023-04-16T02:22:36.700Z,1017.61
2023-04-16T02:24:21.258Z,1017.72
2023-04-16T02:26:06.223Z,1017.72
2023-04-16T02:27:51.307Z,1017.7
2023-04-16T02:29:36.244Z,1017.71
2023-04-16T02:31:21.261Z,1017.66
2023-04-16T02:33:06.339Z,1017.7
2023-04-16T02:34:51.248Z,1017.75
2023-04-16T02:36:36.263Z,1017.69
2023-04-16T02:38:21.309Z,1017.77
2023-04-16T02:40:06.256Z,1017.73
2023-04-16T02:41:51.248Z,1017.72
2023-04-16T02:43:36.288Z,1017.76
2023-04-16T02:45:21.269Z,1017.87
2023-04-16T02:47:06.278Z,1017.82
2023-04-16T02:48:51.326Z,1017.87
2023-04-16T02:50:36.274Z,1017.72
2023-04-16T02:52:21.279Z,1017.82
2023-04-16T02:54:06.344Z,1017.75
2023-04-16T02:55:51.300Z,1017.87
2023-04-16T02:57:36.575Z,1017.77
2023-04-16T02:59:21.374Z,1017.65
2023-04-16T03:01:06.359Z,1017.77
2023-04-16T03:02:51.426Z,1017.85
2023-04-16T03:04:36.381Z,1017.89
2023-04-16T03:06:21.302Z,1017.75
2023-04-16T03:08:06.597Z,1017.85
2023-04-16T03:09:51.341Z,1017.84
2023-04-16T03:11:36.294Z,1017.81
2023-04-16T03:13:21.317Z,1017.84
2023-04-16T03:15:06.361Z,1017.77
2023-04-16T03:16:51.305Z,1017.87
2023-04-16T03:18:36.315Z,1017.78
2023-04-16T03:20:21.345Z,1017.87
2023-04-16T03:22:06.324Z,1017.89
2023-04-16T03:23:51.333Z,1017.86
2023-04-16T03:25:36.353Z,1017.84
2023-04-16T03:27:21.323Z,1017.99
2023-04-16T03:29:06.349Z,1017.85
2023-04-16T03:30:51.402Z,1017.94
2023-04-16T03:32:36.405Z,1017.92
2023-04-16T03:34:21.992Z,1017.93
2023-04-16T03:36:06.389Z,1017.81
2023-04-16T03:37:51.352Z,1017.88
2023-04-16T03:39:36.736Z,1017.91
2023-04-16T03:41:21.356Z,1017.94
2023-04-16T03:43:06.374Z,1017.84
2023-04-16T03:44:51.363Z,1017.9
2023-04-16T03:46:36.447Z,1017.97
2023-04-16T03:48:21.364Z,1017.8
2023-04-16T03:50:06.364Z,1017.85
2023-04-16T03:51:51.399Z,1017.79
2023-04-16T03:53:36.375Z,1017.91
2023-04-16T03:55:21.382Z,1017.97
2023-04-16T03:57:06.430Z,1017.88
2023-04-16T03:58:51.393Z,1017.94
2023-04-16T04:00:36.389Z,1017.93
2023-04-16T04:02:21.538Z,1018
2023-04-16T04:04:06.479Z,1018.01
2023-04-16T04:05:51.711Z,1017.9
2023-04-16T04:07:36.461Z,1017.93
2023-04-16T04:09:21.424Z,1017.95
2023-04-16T04:11:06.412Z,1017.9
2023-04-16T04:12:51.416Z,1017.99
2023-04-16T04:14:36.410Z,1017.99
2023-04-16T04:16:21.447Z,1018.1
2023-04-16T04:18:06.408Z,1018.06
2023-04-16T04:20:00.803Z,1017.97
2023-04-16T04:21:36.405Z,1018.08
2023-04-16T04:23:21.455Z,1018.14
2023-04-16T04:25:06.393Z,1018.07
2023-04-16T04:26:51.420Z,1018.14
2023-04-16T04:28:36.444Z,1018.18
2023-04-16T04:30:21.711Z,1018.07
2023-04-16T04:32:06.426Z,1018.21
2023-04-16T04:33:51.460Z,1018.11
2023-04-16T04:35:36.400Z,1018.18
2023-04-16T04:37:21.445Z,1018.12
2023-04-16T04:39:06.471Z,1018.14
2023-04-16T04:40:51.406Z,1018.19
2023-04-16T04:42:36.429Z,1018.24
2023-04-16T04:44:21.433Z,1018.1
2023-04-16T04:46:06.458Z,1018.19
2023-04-16T04:47:51.481Z,1018.16
2023-04-16T04:49:36.457Z,1018.28
2023-04-16T04:51:21.435Z,1018.22
2023-04-16T04:53:06.429Z,1018.27
2023-04-16T04:54:51.785Z,1018.23
2023-04-16T04:56:36.431Z,1018.19
2023-04-16T04:58:21.477Z,1018.17
2023-04-16T05:00:06.478Z,1018.27
2023-04-16T05:01:52.095Z,1018.19
2023-04-16T05:03:36.518Z,1018.26
2023-04-16T05:05:21.523Z,1018.31
2023-04-16T05:07:06.449Z,1018.22
2023-04-16T05:08:51.432Z,1018.2
2023-04-16T05:10:36.813Z,1018.27
2023-04-16T05:12:21.794Z,1018.36
2023-04-16T05:14:06.491Z,1018.4
2023-04-16T05:15:51.513Z,1018.4
2023-04-16T05:17:36.517Z,1018.4
2023-04-16T05:19:21.487Z,1018.51
2023-04-16T05:21:06.853Z,1018.38
2023-04-16T05:22:51.466Z,1018.37
2023-04-16T05:24:36.471Z,1018.39
2023-04-16T05:26:21.520Z,1018.47
2023-04-16T05:28:06.466Z,1018.57
2023-04-16T05:29:51.491Z,1018.46
2023-04-16T05:31:36.515Z,1018.53
2023-04-16T05:33:21.476Z,1018.54
2023-04-16T05:35:06.493Z,1018.59
2023-04-16T05:36:51.525Z,1018.55
2023-04-16T05:38:36.490Z,1018.56
2023-04-16T05:40:21.495Z,1018.7
2023-04-16T05:42:06.519Z,1018.56
2023-04-16T05:43:51.490Z,1018.63
2023-04-16T05:45:36.524Z,1018.7
2023-04-16T05:47:21.629Z,1018.7
2023-04-16T05:49:06.537Z,1018.79
2023-04-16T05:50:51.512Z,1018.75
2023-04-16T05:52:36.577Z,1018.64
2023-04-16T05:54:21.511Z,1018.75
2023-04-16T05:56:06.502Z,1018.73
2023-04-16T05:57:51.545Z,1018.82
2023-04-16T05:59:36.501Z,1018.73
2023-04-16T06:01:21.528Z,1018.81
2023-04-16T06:03:06.755Z,1018.86
2023-04-16T06:04:51.543Z,1018.93
2023-04-16T06:06:36.537Z,1018.97
2023-04-16T06:08:21.566Z,1018.93
2023-04-16T06:10:06.527Z,1018.92
2023-04-16T06:11:51.525Z,1018.89
2023-04-16T06:13:36.616Z,1018.92
2023-04-16T06:15:21.842Z,1018.93
2023-04-16T06:17:06.532Z,1018.99
2023-04-16T06:18:51.623Z,1019.01
2023-04-16T06:20:36.550Z,1019.01
2023-04-16T06:22:21.530Z,1019
2023-04-16T06:24:06.602Z,1019.05
2023-04-16T06:25:51.579Z,1019.1
2023-04-16T06:27:36.531Z,1019.14
2023-04-16T06:29:24.125Z,1019.17
2023-04-16T06:31:06.593Z,1019.13
2023-04-16T06:32:51.881Z,1019.18
2023-04-16T06:34:36.606Z,1019.13
2023-04-16T06:36:21.570Z,1019.25
2023-04-16T06:38:06.884Z,1019.22
2023-04-16T06:39:51.593Z,1019.24
2023-04-16T06:41:36.576Z,1019.2
2023-04-16T06:43:21.571Z,1019.17
2023-04-16T06:45:06.631Z,1019.19
2023-04-16T06:46:51.600Z,1019.24
2023-04-16T06:48:36.593Z,1019.21
2023-04-16T06:50:21.620Z,1019.31
2023-04-16T06:52:06.591Z,1019.28
2023-04-16T06:53:51.906Z,1019.24
2023-04-16T06:55:36.648Z,1019.28
2023-04-16T06:57:21.625Z,1019.37
2023-04-16T06:59:06.608Z,1019.24
2023-04-16T07:00:51.685Z,1019.34
2023-04-16T07:02:36.656Z,1019.3
2023-04-16T07:04:21.649Z,1019.21
2023-04-16T07:06:06.621Z,1019.43
2023-04-16T07:07:51.615Z,1019.34
2023-04-16T07:09:36.626Z,1019.37
2023-04-16T07:11:21.646Z,1019.3
2023-04-16T07:13:06.614Z,1019.31
2023-04-16T07:14:51.585Z,1019.4
2023-04-16T07:16:36.696Z,1019.44
2023-04-16T07:18:21.614Z,1019.43
2023-04-16T07:20:06.651Z,1019.39
2023-04-16T07:21:51.698Z,1019.34
2023-04-16T07:23:36.944Z,1019.43
2023-04-16T07:25:21.658Z,1019.36
2023-04-16T07:27:06.645Z,1019.38
2023-04-16T07:28:51.652Z,1019.31
2023-04-16T07:30:36.648Z,1019.36
2023-04-16T07:32:21.737Z,1019.3
2023-04-16T07:34:06.652Z,1019.41
2023-04-16T07:35:51.704Z,1019.45
2023-04-16T07:37:36.733Z,1019.47
2023-04-16T07:39:21.654Z,1019.46
2023-04-16T07:41:06.668Z,1019.4
2023-04-16T07:42:51.713Z,1019.5
2023-04-16T07:44:36.689Z,1019.43
2023-04-16T07:46:21.830Z,1019.55
2023-04-16T07:48:06.704Z,1019.51
2023-04-16T07:49:51.660Z,1019.53
2023-04-16T07:51:36.687Z,1019.58
2023-04-16T07:53:21.719Z,1019.56
2023-04-16T07:55:06.690Z,1019.66
2023-04-16T07:56:51.708Z,1019.63
2023-04-16T07:58:36.707Z,1019.7
2023-04-16T08:00:21.978Z,1019.62
2023-04-16T08:02:06.769Z,1019.71
2023-04-16T08:03:51.905Z,1019.68
2023-04-16T08:05:36.683Z,1019.77
2023-04-16T08:07:21.743Z,1019.76
2023-04-16T08:09:07.065Z,1019.89
2023-04-16T08:10:51.708Z,1019.85
2023-04-16T08:12:36.696Z,1019.86
2023-04-16T08:14:21.707Z,1019.79
2023-04-16T08:16:06.719Z,1019.92
2023-04-16T08:17:51.744Z,1020.01
2023-04-16T08:19:36.774Z,1019.88
2023-04-16T08:21:21.721Z,1019.81
2023-04-16T08:23:06.733Z,1019.86
2023-04-16T08:24:51.799Z,1019.89
2023-04-16T08:26:36.714Z,1019.9
2023-04-16T08:28:21.718Z,1020
2023-04-16T08:30:06.819Z,1019.85
2023-04-16T08:31:51.811Z,1020
2023-04-16T08:33:36.716Z,1019.93
2023-04-16T08:35:21.838Z,1020.04
2023-04-16T08:37:06.716Z,1020.01
2023-04-16T08:38:51.791Z,1019.98
2023-04-16T08:40:36.821Z,1019.97
2023-04-16T08:42:21.741Z,1019.95
2023-04-16T08:44:06.733Z,1020.02
2023-04-16T08:45:51.836Z,1020.03
2023-04-16T08:47:42.413Z,1020.11
2023-04-16T08:49:24.294Z,1020.04
2023-04-16T08:51:06.781Z,1020.13
2023-04-16T08:52:51.747Z,1020.12
2023-04-16T08:54:37.069Z,1020.16
2023-04-16T08:58:07.079Z,1020.22
2023-04-16T08:59:51.741Z,1020.14
2023-04-16T09:01:36.799Z,1020.24
2023-04-16T09:03:21.987Z,1020.3
2023-04-16T09:05:06.748Z,1020.22
2023-04-16T09:06:51.835Z,1020.21
2023-04-16T09:08:36.780Z,1020.22
2023-04-16T09:10:21.792Z,1020.21
2023-04-16T09:12:07.093Z,1020.25
2023-04-16T09:13:51.780Z,1020.32
2023-04-16T09:15:36.797Z,1020.31
2023-04-16T09:17:21.895Z,1020.24
2023-04-16T09:19:06.783Z,1020.23
2023-04-16T09:20:52.091Z,1020.23
2023-04-16T09:22:37.118Z,1020.22
2023-04-16T09:24:21.795Z,1020.28
2023-04-16T09:26:06.832Z,1020.29
2023-04-16T09:27:51.851Z,1020.21
2023-04-16T09:29:36.823Z,1020.27
2023-04-16T09:31:21.820Z,1020.29
2023-04-16T09:33:07.156Z,1020.2
2023-04-16T09:34:51.816Z,1020.28
2023-04-16T09:36:36.822Z,1020.3
2023-04-16T09:38:21.912Z,1020.28
2023-04-16T09:40:06.835Z,1020.34
2023-04-16T09:41:51.891Z,1020.27
2023-04-16T09:43:36.848Z,1020.32
2023-04-16T09:45:21.835Z,1020.32
2023-04-16T09:47:07.147Z,1020.4
2023-04-16T09:48:51.888Z,1020.29
2023-04-16T09:50:36.832Z,1020.38
2023-04-16T09:52:22.131Z,1020.31
2023-04-16T09:54:06.903Z,1020.39
2023-04-16T09:55:51.844Z,1020.47
2023-04-16T09:57:36.904Z,1020.41
2023-04-16T09:59:21.904Z,1020.24
2023-04-16T10:01:06.910Z,1020.4
2023-04-16T10:02:52.242Z,1020.31
2023-04-16T10:04:36.979Z,1020.34
2023-04-16T10:06:21.897Z,1020.35
2023-04-16T10:08:06.854Z,1020.39
2023-04-16T10:09:51.889Z,1020.47
2023-04-16T10:11:36.854Z,1020.48
2023-04-16T10:13:22.197Z,1020.43
2023-04-16T10:15:06.913Z,1020.49
2023-04-16T10:16:51.965Z,1020.47
2023-04-16T10:18:36.881Z,1020.44
2023-04-16T10:20:21.896Z,1020.51
2023-04-16T10:22:06.949Z,1020.46
2023-04-16T10:23:51.910Z,1020.36
2023-04-16T10:25:37.586Z,1020.38
2023-04-16T10:27:21.911Z,1020.37
2023-04-16T10:29:06.997Z,1020.34
2023-04-16T10:30:51.966Z,1020.36
2023-04-16T10:32:36.959Z,1020.4
2023-04-16T10:34:21.890Z,1020.44
2023-04-16T10:36:07.605Z,1020.39
2023-04-16T10:37:51.881Z,1020.44
2023-04-16T10:39:36.887Z,1020.44
2023-04-16T10:41:21.944Z,1020.47
2023-04-16T10:43:07.514Z,1020.37
2023-04-16T10:44:51.942Z,1020.4
2023-04-16T10:46:36.974Z,1020.38
2023-04-16T10:48:22.526Z,1020.37
2023-04-16T10:50:06.920Z,1020.52
2023-04-16T10:51:51.992Z,1020.47
2023-04-16T10:53:36.899Z,1020.34
2023-04-16T10:55:21.997Z,1020.45
2023-04-16T10:57:07.022Z,1020.41
2023-04-16T10:58:51.905Z,1020.29
2023-04-16T11:00:36.960Z,1020.36
2023-04-16T11:02:22.166Z,1020.32
2023-04-16T11:04:06.989Z,1020.32
2023-04-16T11:05:51.952Z,1020.34
2023-04-16T11:07:36.974Z,1020.37
2023-04-16T11:09:21.951Z,1020.46
2023-04-16T11:11:06.934Z,1020.44
2023-04-16T11:12:51.966Z,1020.4
2023-04-16T11:14:36.907Z,1020.52
2023-04-16T11:16:21.963Z,1020.4
2023-04-16T11:18:07.038Z,1020.44
2023-04-16T11:19:53.603Z,1020.4
2023-04-16T11:21:36.952Z,1020.37
2023-04-16T11:23:22.014Z,1020.41
2023-04-16T11:25:06.989Z,1020.27
2023-04-16T11:26:52.272Z,1020.43
2023-04-16T11:28:37.009Z,1020.31
2023-04-16T11:30:22.244Z,1020.41
2023-04-16T11:32:06.968Z,1020.38
2023-04-16T11:33:51.990Z,1020.27
2023-04-16T11:35:36.970Z,1020.28
2023-04-16T11:37:21.944Z,1020.38
2023-04-16T11:39:07.045Z,1020.35
2023-04-16T11:40:51.979Z,1020.3
2023-04-16T11:42:37.130Z,1020.38
2023-04-16T11:44:21.999Z,1020.4
2023-04-16T11:46:16.516Z,1020.39
2023-04-16T11:47:52.415Z,1020.42
2023-04-16T11:49:37.014Z,1020.41
2023-04-16T11:51:22.000Z,1020.47
2023-04-16T11:53:07.003Z,1020.44
2023-04-16T11:54:52.034Z,1020.41
2023-04-16T11:56:37.009Z,1020.47
2023-04-16T11:58:21.986Z,1020.52
2023-04-16T12:00:08.612Z,1020.43
2023-04-16T12:01:52.062Z,1020.46
2023-04-16T12:03:37.226Z,1020.47
2023-04-16T12:05:22.048Z,1020.45
2023-04-16T12:07:07.010Z,1020.46
2023-04-16T12:08:52.000Z,1020.48
2023-04-16T12:10:37.104Z,1020.57
2023-04-16T12:12:22.001Z,1020.58
2023-04-16T12:14:06.999Z,1020.55
2023-04-16T12:15:52.036Z,1020.56
2023-04-16T12:17:37.022Z,1020.59
2023-04-16T12:19:22.339Z,1020.53
2023-04-16T12:21:07.111Z,1020.46
2023-04-16T12:22:52.059Z,1020.55
2023-04-16T12:24:37.031Z,1020.51
2023-04-16T12:26:22.075Z,1020.53
2023-04-16T12:28:07.058Z,1020.5
2023-04-16T12:29:52.328Z,1020.5
2023-04-16T12:31:37.122Z,1020.42
2023-04-16T12:33:22.347Z,1020.47
2023-04-16T12:35:07.057Z,1020.47
2023-04-16T12:36:52.122Z,1020.46
2023-04-16T12:38:37.066Z,1020.57
2023-04-16T12:40:22.336Z,1020.57
2023-04-16T12:42:07.066Z,1020.56
2023-04-16T12:43:52.128Z,1020.5
2023-04-16T12:45:37.055Z,1020.52
2023-04-16T12:47:22.433Z,1020.47
2023-04-16T12:49:07.084Z,1020.61
2023-04-16T12:50:52.125Z,1020.46
2023-04-16T12:52:37.081Z,1020.58
2023-04-16T12:54:22.054Z,1020.53
2023-04-16T12:56:07.073Z,1020.52
2023-04-16T12:57:52.446Z,1020.55
2023-04-16T12:59:37.063Z,1020.55
2023-04-16T13:01:22.120Z,1020.55
2023-04-16T13:03:07.243Z,1020.5
2023-04-16T13:04:52.095Z,1020.44
2023-04-16T13:06:37.158Z,1020.52
2023-04-16T13:08:22.135Z,1020.52
2023-04-16T13:10:07.101Z,1020.4
2023-04-16T13:11:52.128Z,1020.45
2023-04-16T13:13:37.176Z,1020.44
2023-04-16T13:15:22.078Z,1020.44
2023-04-16T13:17:07.083Z,1020.38
2023-04-16T13:18:52.182Z,1020.48
2023-04-16T13:20:37.094Z,1020.43
2023-04-16T13:22:22.121Z,1020.5
2023-04-16T13:24:07.174Z,1020.49
2023-04-16T13:25:52.144Z,1020.5
2023-04-16T13:27:37.138Z,1020.48
2023-04-16T13:29:22.486Z,1020.51
2023-04-16T13:31:07.171Z,1020.5
2023-04-16T13:32:52.797Z,1020.43
2023-04-16T13:34:37.196Z,1020.42
2023-04-16T13:36:22.148Z,1020.43
2023-04-16T13:38:07.147Z,1020.41
2023-04-16T13:39:52.162Z,1020.4
2023-04-16T13:41:37.113Z,1020.38
2023-04-16T13:43:22.093Z,1020.47
2023-04-16T13:45:07.167Z,1020.47
2023-04-16T13:46:52.165Z,1020.48
2023-04-16T13:48:37.122Z,1020.58
2023-04-16T13:50:22.210Z,1020.47
2023-04-16T13:52:07.152Z,1020.41
2023-04-16T13:53:52.161Z,1020.44
2023-04-16T13:55:37.197Z,1020.33
2023-04-16T13:57:22.139Z,1020.37
2023-04-16T13:59:07.144Z,1020.48
2023-04-16T14:00:52.233Z,1020.46
2023-04-16T14:02:37.197Z,1020.33
2023-04-16T14:04:22.294Z,1020.33
2023-04-16T14:06:07.303Z,1020.45
2023-04-16T14:07:52.166Z,1020.32
2023-04-16T14:09:37.171Z,1020.36
2023-04-16T14:11:22.218Z,1020.36
2023-04-16T14:13:07.173Z,1020.39
2023-04-16T14:14:52.179Z,1020.42
2023-04-16T14:16:37.248Z,1020.36
2023-04-16T14:18:22.172Z,1020.38
2023-04-16T14:20:07.158Z,1020.38
2023-04-16T14:21:52.232Z,1020.4
2023-04-16T14:23:37.182Z,1020.35
2023-04-16T14:25:22.210Z,1020.39
2023-04-16T14:27:07.212Z,1020.43
2023-04-16T14:28:52.243Z,1020.43
2023-04-16T14:30:37.200Z,1020.32
2023-04-16T14:32:22.247Z,1020.31
2023-04-16T14:34:07.244Z,1020.37
2023-04-16T14:35:52.221Z,1020.36
2023-04-16T14:37:37.225Z,1020.28
2023-04-16T14:39:22.518Z,1020.32
2023-04-16T14:41:07.245Z,1020.39
2023-04-16T14:42:52.265Z,1020.31
2023-04-16T14:44:37.542Z,1020.41
2023-04-16T14:46:22.502Z,1020.37
2023-04-16T14:48:07.230Z,1020.34
2023-04-16T14:49:52.227Z,1020.36
2023-04-16T14:51:37.253Z,1020.4
2023-04-16T14:53:22.276Z,1020.4
2023-04-16T14:55:07.225Z,1020.35
2023-04-16T14:56:52.575Z,1020.31
2023-04-16T14:58:39.139Z,1020.37
2023-04-16T15:00:22.233Z,1020.31
2023-04-16T15:02:07.241Z,1020.34
2023-04-16T15:03:52.434Z,1020.28
2023-04-16T15:05:37.224Z,1020.4
2023-04-16T15:07:22.539Z,1020.37
2023-04-16T15:09:07.298Z,1020.49
2023-04-16T15:10:52.255Z,1020.38
2023-04-16T15:12:37.260Z,1020.32
2023-04-16T15:14:22.234Z,1020.36
2023-04-16T15:16:07.395Z,1020.39
2023-04-16T15:17:52.282Z,1020.39
2023-04-16T15:19:37.306Z,1020.38
2023-04-16T15:21:22.251Z,1020.3
2023-04-16T15:23:07.242Z,1020.3
2023-04-16T15:24:52.313Z,1020.38
2023-04-16T15:26:37.268Z,1020.28
2023-04-16T15:28:22.566Z,1020.33
2023-04-16T15:30:07.255Z,1020.39
2023-04-16T15:31:52.308Z,1020.41
2023-04-16T15:33:37.574Z,1020.27
2023-04-16T15:35:22.279Z,1020.36
2023-04-16T15:37:07.269Z,1020.3
2023-04-16T15:38:52.267Z,1020.32
2023-04-16T15:40:37.282Z,1020.4
2023-04-16T15:42:22.251Z,1020.43
2023-04-16T15:44:07.277Z,1020.39
2023-04-16T15:45:52.323Z,1020.37
2023-04-16T15:47:38.987Z,1020.43
2023-04-16T15:49:22.271Z,1020.42
2023-04-16T15:51:07.315Z,1020.46
2023-04-16T15:52:52.594Z,1020.37
2023-04-16T15:54:37.327Z,1020.32
2023-04-16T15:56:22.343Z,1020.46
2023-04-16T15:58:07.281Z,1020.41
2023-04-16T16:00:05.765Z,1020.64
2023-04-16T16:01:37.395Z,1020.45
2023-04-16T16:03:22.489Z,1020.61
2023-04-16T16:05:07.296Z,1020.58
2023-04-16T16:06:52.393Z,1020.59
2023-04-16T16:08:37.598Z,1020.55
2023-04-16T16:10:22.341Z,1020.61
2023-04-16T16:12:07.347Z,1020.5
2023-04-16T16:13:52.325Z,1020.56
2023-04-16T16:15:37.343Z,1020.6
2023-04-16T16:17:22.404Z,1020.54
2023-04-16T16:19:07.689Z,1020.57
2023-04-16T16:20:52.347Z,1020.66
2023-04-16T16:22:37.371Z,1020.58
2023-04-16T16:24:22.345Z,1020.69
2023-04-16T16:26:07.327Z,1020.67
2023-04-16T16:27:52.357Z,1020.71
2023-04-16T16:29:37.314Z,1020.71
2023-04-16T16:31:22.372Z,1020.71
2023-04-16T16:33:07.456Z,1020.7
2023-04-16T16:34:52.390Z,1020.81
2023-04-16T16:36:37.374Z,1020.84
2023-04-16T16:38:22.346Z,1020.81
2023-04-16T16:40:07.333Z,1020.85
2023-04-16T16:41:52.354Z,1020.82
2023-04-16T16:43:37.417Z,1020.88
2023-04-16T16:45:22.373Z,1020.83
2023-04-16T16:47:07.443Z,1020.88
2023-04-16T16:48:52.417Z,1020.81
2023-04-16T16:50:37.334Z,1020.8
2023-04-16T16:52:22.355Z,1020.82
2023-04-16T16:54:07.431Z,1020.85
2023-04-16T16:55:52.406Z,1020.84
2023-04-16T16:57:37.382Z,1020.82
2023-04-16T16:59:22.722Z,1020.82
2023-04-16T17:01:07.392Z,1020.76
2023-04-16T17:02:52.895Z,1020.81
2023-04-16T17:04:37.507Z,1020.9
2023-04-16T17:06:22.403Z,1020.81
2023-04-16T17:08:07.376Z,1020.94
2023-04-16T17:09:52.485Z,1020.88
2023-04-16T17:11:37.682Z,1020.87
2023-04-16T17:13:22.373Z,1020.81
2023-04-16T17:15:07.395Z,1020.84
2023-04-16T17:16:52.458Z,1020.77
2023-04-16T17:18:37.409Z,1020.88
2023-04-16T17:20:22.443Z,1020.8
2023-04-16T17:22:07.415Z,1020.89
2023-04-16T17:23:52.398Z,1020.83
2023-04-16T17:25:37.438Z,1020.77
2023-04-16T17:27:22.440Z,1020.82
2023-04-16T17:29:07.440Z,1020.85
2023-04-16T17:30:52.522Z,1020.88
2023-04-16T17:32:37.924Z,1020.86
2023-04-16T17:34:22.471Z,1020.76
2023-04-16T17:36:07.793Z,1020.91
2023-04-16T17:37:52.442Z,1020.93
2023-04-16T17:39:37.402Z,1020.86
2023-04-16T17:41:22.470Z,1020.88
2023-04-16T17:43:07.429Z,1020.9
2023-04-16T17:44:52.462Z,1020.99
2023-04-16T17:46:37.768Z,1020.97
2023-04-16T17:48:22.417Z,1020.91
2023-04-16T17:50:07.460Z,1020.95
2023-04-16T17:51:52.489Z,1021.05
2023-04-16T17:53:37.451Z,1021.04
2023-04-16T17:55:22.436Z,1021
2023-04-16T17:57:07.462Z,1021.03
2023-04-16T17:58:52.512Z,1021.04
2023-04-16T18:00:37.451Z,1021.06
2023-04-16T18:02:22.669Z,1021.07
2023-04-16T18:04:07.556Z,1021.04
2023-04-16T18:05:52.460Z,1020.99
2023-04-16T18:07:37.504Z,1021
2023-04-16T18:09:22.474Z,1021.02
2023-04-16T18:11:07.449Z,1021.01
2023-04-16T18:12:52.483Z,1020.96
2023-04-16T18:14:37.504Z,1021.09
2023-04-16T18:16:22.609Z,1021.09
2023-04-16T18:18:07.615Z,1021.12
2023-04-16T18:19:52.471Z,1021.14
2023-04-16T18:21:37.504Z,1021.02
2023-04-16T18:23:22.532Z,1021.14
2023-04-16T18:25:07.465Z,1021.02
2023-04-16T18:26:52.497Z,1021.09
2023-04-16T18:28:38.175Z,1021.1
2023-04-16T18:30:26.270Z,1021.07
2023-04-16T18:32:09.810Z,1021.07
2023-04-16T18:33:56.085Z,1021.14
2023-04-16T18:35:37.482Z,1021.17
2023-04-16T18:37:22.502Z,1021.18
2023-04-16T18:39:07.544Z,1021.17
2023-04-16T18:40:52.510Z,1021.26
2023-04-16T18:42:37.499Z,1021.2
2023-04-16T18:44:22.650Z,1021.21
2023-04-16T18:46:07.846Z,1021.25
2023-04-16T18:47:52.810Z,1021.3
2023-04-16T18:49:37.841Z,1021.35
2023-04-16T18:51:22.548Z,1021.29
2023-04-16T18:53:07.520Z,1021.31
2023-04-16T18:54:52.546Z,1021.31
2023-04-16T18:56:37.833Z,1021.21
2023-04-16T18:58:22.510Z,1021.21
2023-04-16T19:00:07.600Z,1021.3
2023-04-16T19:01:52.537Z,1021.38
2023-04-16T19:03:37.577Z,1021.33
2023-04-16T19:05:22.581Z,1021.34
2023-04-16T19:07:07.841Z,1021.34
2023-04-16T19:08:52.551Z,1021.41
2023-04-16T19:10:37.557Z,1021.31
2023-04-16T19:12:22.528Z,1021.32
2023-04-16T19:14:07.507Z,1021.38
2023-04-16T19:15:52.691Z,1021.36
2023-04-16T19:17:37.577Z,1021.35
2023-04-16T19:19:22.562Z,1021.47
2023-04-16T19:21:07.876Z,1021.45
2023-04-16T19:22:52.845Z,1021.53
2023-04-16T19:24:37.565Z,1021.49
2023-04-16T19:26:22.626Z,1021.49
2023-04-16T19:28:07.545Z,1021.41
2023-04-16T19:29:52.557Z,1021.47
2023-04-16T19:31:37.611Z,1021.49
2023-04-16T19:33:22.871Z,1021.48
2023-04-16T19:35:07.554Z,1021.46
2023-04-16T19:36:52.644Z,1021.5
2023-04-16T19:38:37.594Z,1021.52
2023-04-16T19:40:22.582Z,1021.62
2023-04-16T19:42:07.633Z,1021.55
2023-04-16T19:43:52.618Z,1021.51
2023-04-16T19:45:37.628Z,1021.62
2023-04-16T19:47:22.655Z,1021.54
2023-04-16T19:49:07.582Z,1021.59
2023-04-16T19:50:52.889Z,1021.61
2023-04-16T19:52:37.634Z,1021.65
2023-04-16T19:54:22.890Z,1021.59
2023-04-16T19:56:07.609Z,1021.68
2023-04-16T19:57:52.601Z,1021.65
2023-04-16T19:59:37.616Z,1021.7
2023-04-16T20:01:22.634Z,1021.55
2023-04-16T20:03:08.023Z,1021.73
2023-04-16T20:04:52.671Z,1021.75
2023-04-16T20:06:37.612Z,1021.74
2023-04-16T20:08:22.663Z,1021.8
2023-04-16T20:10:07.613Z,1021.75
2023-04-16T20:11:52.632Z,1021.79
2023-04-16T20:13:37.744Z,1021.73
2023-04-16T20:15:22.603Z,1021.69
2023-04-16T20:17:07.742Z,1021.72
2023-04-16T20:18:52.946Z,1021.71
2023-04-16T20:20:37.626Z,1021.77
2023-04-16T20:22:22.926Z,1021.7
2023-04-16T20:24:08.701Z,1021.68
2023-04-16T20:25:52.648Z,1021.73
2023-04-16T20:27:37.682Z,1021.7
2023-04-16T20:29:22.668Z,1021.73
2023-04-16T20:31:07.735Z,1021.75
2023-04-16T20:32:52.715Z,1021.71
2023-04-16T20:34:37.710Z,1021.68
2023-04-16T20:36:22.642Z,1021.73
2023-04-16T20:38:07.627Z,1021.74
2023-04-16T20:39:52.696Z,1021.84
2023-04-16T20:41:37.938Z,1021.81
2023-04-16T20:43:22.658Z,1021.77
2023-04-16T20:45:07.657Z,1021.71
2023-04-16T20:46:52.712Z,1021.78
2023-04-16T20:48:37.644Z,1021.75
2023-04-16T20:50:22.706Z,1021.72
2023-04-16T20:52:07.676Z,1021.74
2023-04-16T20:53:52.685Z,1021.75
2023-04-16T20:55:38.039Z,1021.67
2023-04-16T20:57:22.671Z,1021.73
2023-04-16T20:59:07.709Z,1021.77
2023-04-16T21:00:52.706Z,1021.76
2023-04-16T21:02:37.849Z,1021.74
2023-04-16T21:04:22.768Z,1021.71
2023-04-16T21:06:07.697Z,1021.82
2023-04-16T21:07:54.719Z,1021.78
2023-04-16T21:09:37.676Z,1021.85
2023-04-16T21:11:22.742Z,1021.79
2023-04-16T21:13:07.698Z,1021.74
2023-04-16T21:14:52.722Z,1021.81
2023-04-16T21:16:37.727Z,1021.76